Time;durP1;ratioP1;P1;durP2;ratioP2;P2;SDS_P1;SDS_P2;PMS_P1;PMS_P2;Temp;Humidity;BMP_temperature;BMP_pressure;BME280_temperature;BME280_humidity;BME280_pressure;Samples;Min_cycle;Max_cycle;Signal;HPM_P1;HPM_P2
2022/04/06 00:01:18;;;;;;;26.30;11.65;;;;;;;;;;4999851;28;20310;-65
2022/04/06 00:03:44;;;;;;;32.70;11.63;;;;;;;;;;4998285;28;20076;-65
2022/04/06 00:06:10;;;;;;;31.45;11.57;;;;;;;;;;5004117;28;20029;-65
2022/04/06 00:08:36;;;;;;;26.70;11.18;;;;;;;;;;4998119;28;20377;-65
2022/04/06 00:11:03;;;;;;;26.40;10.65;;;;;;;;;;4998988;28;20029;-65
2022/04/06 00:13:29;;;;;;;30.63;11.02;;;;;;;;;;5004477;28;20384;-65
2022/04/06 00:15:55;;;;;;;23.52;11.48;;;;;;;;;;4999972;28;20018;-63
2022/04/06 00:18:21;;;;;;;29.42;10.98;;;;;;;;;;4996536;28;20034;-65
2022/04/06 00:20:47;;;;;;;30.77;11.50;;;;;;;;;;4999388;28;20029;-65
2022/04/06 00:23:15;;;;;;;28.05;11.13;;;;;;;;;;5000710;28;20177;-64
2022/04/06 00:25:40;;;;;;;29.75;11.45;;;;;;;;;;5002739;28;20497;-66
2022/04/06 00:28:06;;;;;;;25.83;10.77;;;;;;;;;;5003873;28;20046;-66
2022/04/06 00:30:33;;;;;;;32.63;11.80;;;;;;;;;;5002750;28;20643;-66
2022/04/06 00:32:59;;;;;;;23.92;11.80;;;;;;;;;;5002093;28;20172;-65
2022/04/06 00:35:34;;;;;;;27.58;11.52;;;;;;;;;;5001332;28;20023;-65
2022/04/06 00:38:02;;;;;;;25.52;11.63;;;;;;;;;;5004076;28;20029;-65
2022/04/06 00:40:28;;;;;;;25.23;11.07;;;;;;;;;;5005295;28;20014;-65
2022/04/06 00:42:54;;;;;;;29.58;12.30;;;;;;;;;;5001145;28;20493;-65
2022/04/06 00:45:21;;;;;;;27.08;11.95;;;;;;;;;;5006755;28;20026;-65
2022/04/06 00:47:47;;;;;;;28.95;12.00;;;;;;;;;;5007198;28;20037;-66
2022/04/06 00:50:13;;;;;;;30.08;11.43;;;;;;;;;;5006507;28;20057;-66
2022/04/06 00:52:40;;;;;;;24.85;11.25;;;;;;;;;;5003946;28;20045;-66
2022/04/06 00:55:06;;;;;;;27.13;11.77;;;;;;;;;;5007585;28;20022;-64
2022/04/06 00:57:33;;;;;;;29.67;11.50;;;;;;;;;;5003948;28;20235;-65
2022/04/06 00:59:59;;;;;;;26.63;10.93;;;;;;;;;;5003740;28;20041;-62
2022/04/06 01:02:25;;;;;;;22.48;10.55;;;;;;;;;;5006314;28;20029;-63
2022/04/06 01:04:51;;;;;;;28.45;10.00;;;;;;;;;;5006103;28;20739;-65
2022/04/06 01:07:18;;;;;;;22.50;9.50;;;;;;;;;;5003472;28;20048;-63
2022/04/06 01:09:45;;;;;;;23.23;9.68;;;;;;;;;;5007305;28;20152;-65
2022/04/06 01:12:11;;;;;;;27.65;9.63;;;;;;;;;;5005497;28;20428;-65
2022/04/06 01:14:38;;;;;;;23.42;9.68;;;;;;;;;;5005210;28;20025;-66
2022/04/06 01:17:07;;;;;;;26.20;9.52;;;;;;;;;;5002541;28;20057;-65
2022/04/06 01:19:34;;;;;;;27.48;9.82;;;;;;;;;;5005272;28;20290;-65
2022/04/06 01:22:00;;;;;;;23.48;9.40;;;;;;;;;;5003833;28;20029;-65
2022/04/06 01:24:26;;;;;;;26.20;9.82;;;;;;;;;;5006803;28;20034;-62
2022/04/06 01:26:53;;;;;;;19.58;9.38;;;;;;;;;;4984372;28;20382;-65
2022/04/06 01:29:19;;;;;;;24.85;9.10;;;;;;;;;;4998991;28;20088;-65
2022/04/06 01:31:45;;;;;;;19.38;8.73;;;;;;;;;;5003051;28;20022;-65
2022/04/06 01:34:11;;;;;;;23.83;9.02;;;;;;;;;;5004147;28;20459;-63
2022/04/06 01:36:37;;;;;;;21.85;9.07;;;;;;;;;;5004199;28;20034;-65
2022/04/06 01:39:03;;;;;;;23.55;8.82;;;;;;;;;;5001144;28;20494;-64
2022/04/06 01:41:32;;;;;;;22.50;8.35;;;;;;;;;;5002464;28;20301;-65
2022/04/06 01:43:58;;;;;;;20.63;8.32;;;;;;;;;;5004205;28;20037;-65
2022/04/06 01:46:24;;;;;;;19.75;8.45;;;;;;;;;;5006247;28;20045;-65
2022/04/06 01:54:23;;;;;;;17.02;7.15;;;;;;;;;;5002671;28;20044;-65
2022/04/06 01:56:50;;;;;;;19.55;8.30;;;;;;;;;;5003592;28;20072;-63
2022/04/06 01:59:16;;;;;;;23.75;7.80;;;;;;;;;;5006064;28;20038;-65
2022/04/06 02:01:43;;;;;;;17.02;7.22;;;;;;;;;;5001375;28;20061;-64
2022/04/06 02:04:15;;;;;;;19.02;7.47;;;;;;;;;;5005807;28;20030;-65
2022/04/06 02:06:41;;;;;;;22.42;7.53;;;;;;;;;;5004767;28;20061;-61
2022/04/06 02:09:08;;;;;;;20.25;7.22;;;;;;;;;;5000294;28;20034;-64
2022/04/06 02:11:34;;;;;;;19.83;6.88;;;;;;;;;;4984991;28;20026;-65
2022/04/06 02:14:00;;;;;;;18.35;6.47;;;;;;;;;;5005989;28;20061;-65
2022/04/06 02:16:26;;;;;;;21.02;7.30;;;;;;;;;;5001850;28;20425;-65
2022/04/06 02:18:52;;;;;;;17.38;6.15;;;;;;;;;;5003594;28;20056;-64
2022/04/06 02:21:18;;;;;;;17.15;7.00;;;;;;;;;;5006509;28;20048;-65
2022/04/06 02:23:44;;;;;;;18.73;6.82;;;;;;;;;;5003288;28;20029;-65
2022/04/06 02:26:10;;;;;;;19.13;6.55;;;;;;;;;;5003953;28;20032;-65
2022/04/06 02:28:36;;;;;;;16.75;6.15;;;;;;;;;;5003874;28;20038;-65
2022/04/06 02:31:02;;;;;;;17.55;6.32;;;;;;;;;;5000577;28;20026;-63
2022/04/06 02:33:28;;;;;;;18.92;6.75;;;;;;;;;;5000118;28;20029;-64
2022/04/06 02:35:54;;;;;;;16.65;7.05;;;;;;;;;;4991124;28;20053;-65
2022/04/06 02:38:20;;;;;;;23.23;6.10;;;;;;;;;;5006516;28;20034;-62
2022/04/06 02:40:46;;;;;;;13.23;5.85;;;;;;;;;;5002557;28;20034;-62
2022/04/06 02:43:12;;;;;;;11.05;6.05;;;;;;;;;;4999598;28;20541;-63
2022/04/06 02:45:38;;;;;;;18.70;6.13;;;;;;;;;;5005303;28;20111;-63
2022/04/06 02:48:05;;;;;;;17.38;6.53;;;;;;;;;;5001232;28;20036;-64
2022/04/06 02:50:31;;;;;;;18.33;6.15;;;;;;;;;;5005477;28;20087;-65
2022/04/06 02:52:57;;;;;;;16.08;5.72;;;;;;;;;;5003142;28;20029;-64
2022/04/06 02:55:23;;;;;;;14.95;5.95;;;;;;;;;;5001411;28;20552;-63
2022/04/06 02:57:49;;;;;;;14.90;5.68;;;;;;;;;;4996655;28;20030;-64
2022/04/06 03:00:16;;;;;;;18.30;5.75;;;;;;;;;;5002865;28;20478;-64
2022/04/06 03:02:42;;;;;;;13.90;5.60;;;;;;;;;;5002873;28;20129;-65
2022/04/06 03:05:08;;;;;;;15.27;5.90;;;;;;;;;;5005738;28;20595;-64
2022/04/06 03:07:34;;;;;;;15.65;6.07;;;;;;;;;;5001564;28;20069;-65
2022/04/06 03:10:03;;;;;;;14.57;5.40;;;;;;;;;;5002138;28;20069;-65
2022/04/06 03:12:29;;;;;;;14.32;5.63;;;;;;;;;;4998755;28;20730;-66
2022/04/06 03:14:55;;;;;;;13.80;5.60;;;;;;;;;;5002712;28;20378;-65
2022/04/06 03:17:21;;;;;;;12.02;6.28;;;;;;;;;;5000537;28;20056;-66
2022/04/06 03:19:47;;;;;;;18.90;6.38;;;;;;;;;;5005547;28;20032;-66
2022/04/06 03:22:17;;;;;;;20.90;6.63;;;;;;;;;;5003252;28;20030;-65
2022/04/06 03:24:43;;;;;;;14.27;6.40;;;;;;;;;;5001687;28;20045;-66
2022/04/06 03:27:10;;;;;;;16.02;6.63;;;;;;;;;;5002216;28;20034;-65
2022/04/06 03:29:36;;;;;;;24.83;7.35;;;;;;;;;;4987518;28;20053;-66
2022/04/06 03:32:02;;;;;;;18.90;6.72;;;;;;;;;;5000190;28;20087;-65
2022/04/06 03:34:28;;;;;;;17.90;6.38;;;;;;;;;;5001306;28;20037;-66
2022/04/06 03:36:54;;;;;;;21.02;7.35;;;;;;;;;;5000578;28;20029;-66
2022/04/06 03:39:20;;;;;;;18.05;6.90;;;;;;;;;;4985332;28;20026;-65
2022/04/06 03:41:46;;;;;;;18.00;6.55;;;;;;;;;;4991384;28;20038;-66
2022/04/06 03:44:12;;;;;;;20.45;6.95;;;;;;;;;;5004698;28;20026;-66
2022/04/06 03:46:38;;;;;;;14.27;6.47;;;;;;;;;;4986785;28;20116;-65
2022/04/06 03:49:04;;;;;;;15.43;6.95;;;;;;;;;;5000077;28;20146;-63
2022/04/06 03:51:30;;;;;;;21.40;7.30;;;;;;;;;;5002230;28;20025;-65
2022/04/06 03:53:56;;;;;;;18.00;6.53;;;;;;;;;;4986216;28;20026;-63
2022/04/06 03:56:22;;;;;;;14.57;6.50;;;;;;;;;;5003782;28;20014;-64
2022/04/06 03:58:48;;;;;;;18.38;7.05;;;;;;;;;;4998214;28;20101;-63
2022/04/06 04:01:14;;;;;;;14.05;6.07;;;;;;;;;;5003470;28;20236;-66
2022/04/06 04:03:40;;;;;;;15.82;6.07;;;;;;;;;;4990363;28;20028;-64
2022/04/06 04:06:06;;;;;;;17.08;6.38;;;;;;;;;;4988878;28;20108;-65
2022/04/06 04:08:32;;;;;;;14.88;6.43;;;;;;;;;;4983174;28;20042;-65
2022/04/06 04:10:59;;;;;;;11.88;5.82;;;;;;;;;;5003333;28;20029;-66
2022/04/06 04:13:25;;;;;;;12.45;5.93;;;;;;;;;;5004431;28;20036;-66
2022/04/06 04:15:51;;;;;;;14.32;5.80;;;;;;;;;;4984856;28;20069;-66
2022/04/06 04:18:17;;;;;;;16.42;5.88;;;;;;;;;;5001868;28;20195;-66
2022/04/06 04:20:45;;;;;;;17.27;5.75;;;;;;;;;;5002730;28;20013;-63
2022/04/06 04:23:11;;;;;;;13.73;5.35;;;;;;;;;;5001078;28;20349;-65
2022/04/06 04:25:37;;;;;;;13.80;5.28;;;;;;;;;;5003427;28;20038;-66
2022/04/06 04:28:03;;;;;;;13.10;5.22;;;;;;;;;;4998421;28;20044;-65
2022/04/06 04:30:29;;;;;;;12.60;4.85;;;;;;;;;;5003309;28;20018;-65
2022/04/06 04:32:55;;;;;;;17.05;5.38;;;;;;;;;;5000145;28;20037;-65
2022/04/06 04:35:21;;;;;;;16.88;5.35;;;;;;;;;;5002468;28;20425;-66
2022/04/06 04:37:47;;;;;;;12.57;4.88;;;;;;;;;;4999299;28;20030;-66
2022/04/06 04:40:16;;;;;;;10.57;4.78;;;;;;;;;;5004313;28;20038;-66
2022/04/06 04:42:42;;;;;;;11.35;4.55;;;;;;;;;;4996256;28;20026;-67
2022/04/06 04:45:09;;;;;;;10.48;4.22;;;;;;;;;;4996196;28;20030;-65
2022/04/06 04:47:35;;;;;;;16.00;4.70;;;;;;;;;;5001834;28;20560;-66
2022/04/06 04:50:01;;;;;;;13.55;4.38;;;;;;;;;;5002467;28;20034;-64
2022/04/06 04:52:28;;;;;;;8.65;4.30;;;;;;;;;;5000375;28;20470;-66
2022/04/06 04:54:54;;;;;;;13.05;4.47;;;;;;;;;;5003157;28;20552;-66
2022/04/06 04:57:19;;;;;;;9.73;4.00;;;;;;;;;;4999090;28;20030;-66
2022/04/06 04:59:45;;;;;;;12.32;4.20;;;;;;;;;;5002928;28;20037;-66
2022/04/06 05:02:11;;;;;;;11.35;4.05;;;;;;;;;;5001416;28;20040;-66
2022/04/06 05:04:37;;;;;;;14.00;4.25;;;;;;;;;;5003480;28;20097;-65
2022/04/06 05:07:04;;;;;;;10.15;4.43;;;;;;;;;;5000386;28;20627;-65
2022/04/06 05:09:29;;;;;;;13.93;4.82;;;;;;;;;;4999314;28;20037;-65
2022/04/06 05:11:55;;;;;;;13.45;4.70;;;;;;;;;;5000441;28;20034;-65
2022/04/06 05:14:21;;;;;;;12.02;4.47;;;;;;;;;;5001337;28;20021;-64
2022/04/06 05:16:47;;;;;;;12.13;4.85;;;;;;;;;;4980538;28;20045;-64
2022/04/06 05:19:13;;;;;;;14.38;5.10;;;;;;;;;;5000389;28;20032;-66
2022/04/06 05:21:39;;;;;;;13.75;4.90;;;;;;;;;;4999348;28;20026;-66
2022/04/06 05:24:06;;;;;;;15.57;5.38;;;;;;;;;;5003353;28;20034;-66
2022/04/06 05:26:32;;;;;;;16.95;5.38;;;;;;;;;;4998541;28;20604;-66
2022/04/06 05:28:58;;;;;;;14.88;4.80;;;;;;;;;;5002666;28;20100;-66
2022/04/06 05:31:24;;;;;;;13.60;5.05;;;;;;;;;;4996335;28;20040;-66
2022/04/06 05:33:50;;;;;;;19.38;5.10;;;;;;;;;;5003727;28;20401;-66
2022/04/06 05:36:16;;;;;;;14.32;4.90;;;;;;;;;;5001840;28;20394;-66
2022/04/06 05:38:42;;;;;;;13.68;5.50;;;;;;;;;;5001866;28;20041;-65
2022/04/06 05:41:08;;;;;;;16.88;5.78;;;;;;;;;;4988989;28;20121;-66
2022/04/06 05:43:34;;;;;;;14.13;5.30;;;;;;;;;;5006880;28;20026;-65
2022/04/06 05:46:00;;;;;;;13.93;4.80;;;;;;;;;;5002207;28;20026;-62
2022/04/06 05:48:26;;;;;;;13.13;5.20;;;;;;;;;;4999535;28;20818;-67
2022/04/06 05:50:52;;;;;;;17.17;5.07;;;;;;;;;;5003181;28;20066;-66
2022/04/06 05:53:18;;;;;;;12.30;4.68;;;;;;;;;;5003195;28;20029;-64
2022/04/06 05:55:47;;;;;;;11.73;4.75;;;;;;;;;;5003200;28;20037;-64
2022/04/06 05:58:13;;;;;;;13.40;4.25;;;;;;;;;;5006037;28;20118;-66
2022/04/06 06:00:39;;;;;;;13.32;4.40;;;;;;;;;;5001277;28;20112;-65
2022/04/06 06:03:05;;;;;;;15.57;4.90;;;;;;;;;;5005552;28;20025;-67
2022/04/06 06:05:31;;;;;;;11.55;3.90;;;;;;;;;;5001473;28;20091;-66
2022/04/06 06:07:57;;;;;;;11.52;3.83;;;;;;;;;;4997418;28;20029;-65
2022/04/06 06:10:23;;;;;;;13.32;4.15;;;;;;;;;;5000923;28;20027;-62
2022/04/06 06:12:49;;;;;;;13.95;4.55;;;;;;;;;;4981355;28;20023;-66
2022/04/06 06:15:15;;;;;;;14.38;4.20;;;;;;;;;;5003960;28;20030;-66
2022/04/06 06:17:42;;;;;;;13.05;4.55;;;;;;;;;;5006329;28;20492;-65
2022/04/06 06:20:08;;;;;;;11.63;3.90;;;;;;;;;;5004375;28;20077;-65
2022/04/06 06:22:34;;;;;;;13.05;4.40;;;;;;;;;;5004581;28;20107;-65
2022/04/06 06:25:00;;;;;;;12.88;4.45;;;;;;;;;;5003504;28;20061;-65
2022/04/06 06:27:26;;;;;;;12.70;4.60;;;;;;;;;;5002437;28;20096;-65
2022/04/06 06:29:52;;;;;;;12.50;4.10;;;;;;;;;;5002827;28;20034;-65
2022/04/06 06:32:18;;;;;;;11.57;4.47;;;;;;;;;;5002723;28;20048;-66
2022/04/06 06:34:44;;;;;;;13.57;4.10;;;;;;;;;;5003717;28;20034;-66
2022/04/06 06:37:11;;;;;;;16.50;4.15;;;;;;;;;;5000629;28;20062;-65
2022/04/06 06:39:37;;;;;;;13.82;4.55;;;;;;;;;;5001662;28;20127;-64
2022/04/06 06:42:07;;;;;;;15.15;5.43;;;;;;;;;;5003193;28;20022;-65
2022/04/06 06:44:33;;;;;;;14.32;4.28;;;;;;;;;;5003204;28;20026;-62
2022/04/06 06:46:58;;;;;;;12.70;4.43;;;;;;;;;;5000424;28;20474;-65
2022/04/06 06:49:24;;;;;;;16.00;4.70;;;;;;;;;;4988425;28;20175;-64
2022/04/06 06:51:50;;;;;;;14.98;5.03;;;;;;;;;;5003060;28;20022;-64
2022/04/06 06:54:16;;;;;;;14.68;4.95;;;;;;;;;;5001026;28;20140;-66
2022/04/06 06:56:42;;;;;;;14.80;5.43;;;;;;;;;;5002231;28;20030;-65
2022/04/06 06:59:08;;;;;;;14.40;4.93;;;;;;;;;;5001657;28;20508;-62
2022/04/06 07:01:35;;;;;;;9.90;5.35;;;;;;;;;;5003216;28;20054;-66
2022/04/06 07:04:01;;;;;;;10.27;4.68;;;;;;;;;;5002915;28;20037;-65
2022/04/06 07:06:27;;;;;;;11.77;5.27;;;;;;;;;;5002916;28;20040;-65
2022/04/06 07:08:53;;;;;;;15.18;5.10;;;;;;;;;;5003134;28;20026;-64
2022/04/06 07:11:19;;;;;;;11.10;4.88;;;;;;;;;;5001464;28;20093;-64
2022/04/06 07:13:45;;;;;;;15.30;5.40;;;;;;;;;;5002168;28;20025;-64
2022/04/06 07:16:14;;;;;;;14.73;5.40;;;;;;;;;;4986392;28;20314;-65
2022/04/06 07:18:40;;;;;;;13.35;5.75;;;;;;;;;;5001976;28;20175;-65
2022/04/06 07:21:06;;;;;;;15.20;5.13;;;;;;;;;;4985634;28;20029;-65
2022/04/06 07:23:33;;;;;;;14.13;4.88;;;;;;;;;;5001145;28;20038;-65
2022/04/06 07:25:59;;;;;;;12.63;4.10;;;;;;;;;;4985981;28;20029;-65
2022/04/06 07:28:25;;;;;;;10.65;4.47;;;;;;;;;;5003146;28;20470;-65
2022/04/06 07:30:51;;;;;;;10.23;4.05;;;;;;;;;;4982426;28;20116;-65
2022/04/06 07:33:17;;;;;;;15.43;4.50;;;;;;;;;;5005232;28;20418;-65
2022/04/06 07:35:44;;;;;;;13.73;4.47;;;;;;;;;;5003718;28;20377;-66
2022/04/06 07:38:12;;;;;;;10.48;4.20;;;;;;;;;;5001313;28;20030;-65
2022/04/06 07:40:38;;;;;;;12.00;4.28;;;;;;;;;;5001769;28;20547;-65
2022/04/06 07:43:04;;;;;;;11.27;4.20;;;;;;;;;;5001674;28;20736;-64
2022/04/06 07:45:30;;;;;;;10.13;4.50;;;;;;;;;;5003218;28;20055;-65
2022/04/06 07:47:56;;;;;;;13.65;4.57;;;;;;;;;;5003512;28;20037;-65
2022/04/06 07:50:22;;;;;;;7.35;3.70;;;;;;;;;;5002177;28;20101;-65
2022/04/06 07:52:48;;;;;;;9.48;4.28;;;;;;;;;;5001694;28;20037;-66
2022/04/06 07:55:15;;;;;;;9.63;3.80;;;;;;;;;;5002100;28;20022;-64
2022/04/06 07:57:41;;;;;;;9.40;3.50;;;;;;;;;;5001868;28;20049;-65
2022/04/06 08:00:07;;;;;;;6.82;3.55;;;;;;;;;;4998028;28;20042;-65
2022/04/06 08:02:34;;;;;;;11.50;4.25;;;;;;;;;;4994680;28;20026;-64
2022/04/06 08:05:00;;;;;;;9.02;4.22;;;;;;;;;;4999494;28;20041;-66
2022/04/06 08:07:26;;;;;;;9.68;3.97;;;;;;;;;;5001453;28;20037;-65
2022/04/06 08:09:52;;;;;;;16.67;4.43;;;;;;;;;;5000873;28;20409;-65
2022/04/06 08:12:18;;;;;;;11.05;4.72;;;;;;;;;;4983779;28;20117;-65
2022/04/06 08:14:46;;;;;;;10.32;4.00;;;;;;;;;;5002718;28;20100;-65
2022/04/06 08:17:12;;;;;;;11.45;3.83;;;;;;;;;;4984405;28;20056;-65
2022/04/06 08:19:38;;;;;;;12.18;3.90;;;;;;;;;;5002190;28;20085;-64
2022/04/06 08:22:04;;;;;;;10.68;4.07;;;;;;;;;;4993331;28;20080;-65
2022/04/06 08:24:30;;;;;;;11.07;4.60;;;;;;;;;;5001367;28;20054;-65
2022/04/06 08:26:56;;;;;;;9.43;3.92;;;;;;;;;;4993652;28;20026;-65
2022/04/06 08:29:22;;;;;;;15.30;4.05;;;;;;;;;;4998828;28;20072;-65
2022/04/06 08:31:49;;;;;;;7.60;3.67;;;;;;;;;;5003358;28;20030;-64
2022/04/06 08:34:15;;;;;;;12.65;3.85;;;;;;;;;;5003960;28;20026;-65
2022/04/06 08:36:43;;;;;;;12.05;3.70;;;;;;;;;;4982664;28;20080;-64
2022/04/06 08:39:09;;;;;;;8.57;3.08;;;;;;;;;;5000257;28;20429;-66
2022/04/06 08:41:35;;;;;;;12.75;3.50;;;;;;;;;;4982694;28;20100;-66
2022/04/06 08:44:01;;;;;;;11.10;3.17;;;;;;;;;;4982863;28;20100;-66
2022/04/06 08:46:31;;;;;;;9.27;3.28;;;;;;;;;;4999833;28;20036;-65
2022/04/06 08:48:58;;;;;;;8.50;3.50;;;;;;;;;;4998226;28;20022;-66
2022/04/06 08:51:28;;;;;;;11.73;3.25;;;;;;;;;;5000412;28;20073;-63
2022/04/06 08:53:54;;;;;;;7.85;2.75;;;;;;;;;;4994485;28;20505;-65
2022/04/06 08:56:21;;;;;;;12.35;2.92;;;;;;;;;;4992968;28;20021;-65
2022/04/06 08:58:47;;;;;;;7.32;3.03;;;;;;;;;;5000052;28;20026;-62
2022/04/06 09:01:13;;;;;;;8.18;2.60;;;;;;;;;;5003035;28;20038;-65
2022/04/06 09:03:39;;;;;;;8.82;2.67;;;;;;;;;;4997838;28;20363;-64
2022/04/06 09:06:09;;;;;;;10.02;2.88;;;;;;;;;;5004981;28;20038;-64
2022/04/06 09:08:35;;;;;;;6.30;2.20;;;;;;;;;;4985108;28;20026;-66
2022/04/06 09:11:08;;;;;;;7.20;2.20;;;;;;;;;;5002986;28;20021;-66
2022/04/06 09:13:34;;;;;;;7.03;2.35;;;;;;;;;;4989017;28;21177;-67
2022/04/06 09:16:01;;;;;;;5.05;2.08;;;;;;;;;;5003033;28;20365;-66
2022/04/06 09:18:38;;;;;;;7.93;2.25;;;;;;;;;;5004245;28;20017;-65
2022/04/06 09:21:04;;;;;;;6.63;2.22;;;;;;;;;;4999621;28;20030;-64
2022/04/06 09:23:31;;;;;;;8.32;2.05;;;;;;;;;;5006417;28;20617;-65
2022/04/06 09:26:01;;;;;;;9.23;2.40;;;;;;;;;;5002692;28;20072;-65
2022/04/06 09:28:27;;;;;;;8.25;2.45;;;;;;;;;;4992267;28;20045;-66
2022/04/06 09:30:53;;;;;;;7.05;2.67;;;;;;;;;;4986016;28;20026;-66
2022/04/06 09:33:20;;;;;;;3.65;2.25;;;;;;;;;;4985778;28;20018;-65
2022/04/06 09:35:46;;;;;;;5.75;2.47;;;;;;;;;;5007444;28;20037;-65
2022/04/06 09:38:19;;;;;;;8.07;2.38;;;;;;;;;;5004866;28;20034;-65
2022/04/06 09:40:45;;;;;;;9.77;2.20;;;;;;;;;;5000930;28;21066;-63
2022/04/06 09:43:25;;;;;;;10.20;2.47;;;;;;;;;;5004177;28;20030;-64
2022/04/06 09:48:52;;;;;;;5.40;2.10;;;;;;;;;;5002177;28;20041;-65
2022/04/06 09:51:18;;;;;;;7.25;2.00;;;;;;;;;;5002688;28;20139;-65
2022/04/06 09:53:45;;;;;;;6.88;2.25;;;;;;;;;;5005154;28;20093;-64
2022/04/06 09:56:11;;;;;;;9.80;2.97;;;;;;;;;;4984953;28;20018;-65
2022/04/06 09:58:37;;;;;;;8.10;2.50;;;;;;;;;;5003888;28;20041;-64
2022/04/06 10:01:04;;;;;;;8.27;2.42;;;;;;;;;;4992406;28;20033;-64
2022/04/06 10:03:30;;;;;;;7.70;2.17;;;;;;;;;;5005827;28;20022;-63
2022/04/06 10:05:56;;;;;;;11.02;2.40;;;;;;;;;;5004050;28;20030;-63
2022/04/06 10:08:23;;;;;;;5.97;2.17;;;;;;;;;;5004587;28;20026;-64
2022/04/06 10:10:53;;;;;;;10.65;2.15;;;;;;;;;;4997460;28;20030;-63
2022/04/06 10:13:19;;;;;;;7.60;2.53;;;;;;;;;;5005338;28;20033;-61
2022/04/06 10:15:46;;;;;;;4.38;1.90;;;;;;;;;;5000623;28;20111;-62
2022/04/06 10:18:11;;;;;;;4.95;2.20;;;;;;;;;;5003980;28;20477;-61
2022/04/06 10:20:49;;;;;;;9.45;2.30;;;;;;;;;;4983748;28;20067;-62
2022/04/06 10:23:34;;;;;;;8.07;2.58;;;;;;;;;;5003147;28;20040;-62
2022/04/06 10:26:14;;;;;;;8.05;2.20;;;;;;;;;;5005371;28;20042;-62
2022/04/06 10:28:44;;;;;;;6.88;2.20;;;;;;;;;;4999800;28;20026;-61
2022/04/06 10:31:22;;;;;;;5.65;2.28;;;;;;;;;;5003433;28;20425;-62
2022/04/06 10:33:48;;;;;;;6.68;2.30;;;;;;;;;;5003294;28;20064;-61
2022/04/06 10:36:23;;;;;;;9.25;2.40;;;;;;;;;;4999987;28;20509;-61
2022/04/06 10:39:08;;;;;;;7.30;2.22;;;;;;;;;;5002770;28;20400;-62
2022/04/06 10:41:34;;;;;;;5.97;1.90;;;;;;;;;;5004166;28;20026;-62
2022/04/06 10:44:00;;;;;;;5.82;2.13;;;;;;;;;;5001080;28;20083;-61
2022/04/06 10:46:39;;;;;;;5.68;2.33;;;;;;;;;;4987381;28;20116;-62
2022/04/06 10:49:15;;;;;;;7.57;2.20;;;;;;;;;;5004720;28;20647;-62
2022/04/06 10:51:49;;;;;;;4.72;1.95;;;;;;;;;;5000318;28;20022;-62
2022/04/06 10:54:15;;;;;;;8.40;2.28;;;;;;;;;;5001914;28;20037;-62
2022/04/06 10:56:50;;;;;;;7.55;2.45;;;;;;;;;;4998659;28;20026;-62
2022/04/06 10:59:20;;;;;;;6.05;2.20;;;;;;;;;;5001970;28;20054;-62
2022/04/06 11:01:48;;;;;;;7.47;2.55;;;;;;;;;;4999226;28;20036;-62
2022/04/06 11:04:20;;;;;;;7.53;2.65;;;;;;;;;;4996979;28;20053;-62
2022/04/06 11:06:49;;;;;;;5.43;2.10;;;;;;;;;;4984712;28;20331;-61
2022/04/06 11:12:14;;;;;;;6.93;2.40;;;;;;;;;;4992397;28;20049;-62
2022/04/06 11:14:40;;;;;;;;;;;;;;;;;;5004336;28;20100;-62
2022/04/06 11:17:26;;;;;;;7.85;2.65;;;;;;;;;;4986535;28;20927;-62
2022/04/06 11:19:52;;;;;;;6.05;2.80;;;;;;;;;;4998783;28;20128;-62
2022/04/06 11:22:22;;;;;;;12.30;3.00;;;;;;;;;;4998429;28;20508;-62
2022/04/06 11:24:48;;;;;;;10.07;2.55;;;;;;;;;;5000499;28;20784;-62
2022/04/06 11:27:30;;;;;;;6.38;2.78;;;;;;;;;;5001697;28;20053;-62
2022/04/06 11:30:15;;;;;;;7.18;2.50;;;;;;;;;;4997686;28;20033;-62
2022/04/06 11:32:45;;;;;;;10.25;3.17;;;;;;;;;;4998923;28;20381;-62
2022/04/06 11:35:11;;;;;;;7.50;2.70;;;;;;;;;;5002762;28;20114;-62
2022/04/06 11:37:41;;;;;;;4.90;2.50;;;;;;;;;;5002360;28;20030;-62
2022/04/06 11:40:07;;;;;;;5.88;2.83;;;;;;;;;;4999025;28;20588;-61
2022/04/06 11:42:33;;;;;;;5.80;2.40;;;;;;;;;;4996565;28;20038;-61
2022/04/06 11:45:00;;;;;;;4.57;2.42;;;;;;;;;;4983789;28;20099;-62
2022/04/06 11:47:27;;;;;;;6.75;2.63;;;;;;;;;;4995830;28;20088;-62
2022/04/06 11:49:53;;;;;;;3.83;2.17;;;;;;;;;;4980855;28;20057;-62
2022/04/06 11:52:19;;;;;;;5.07;2.38;;;;;;;;;;4997885;28;20049;-61
2022/04/06 11:54:52;;;;;;;5.38;2.30;;;;;;;;;;4996841;28;20022;-62
2022/04/06 11:57:18;;;;;;;6.53;2.22;;;;;;;;;;4999024;28;20025;-62
2022/04/06 11:59:54;;;;;;;6.68;2.47;;;;;;;;;;4997304;28;20034;-62
2022/04/06 12:02:20;;;;;;;7.05;2.67;;;;;;;;;;4998481;28;20036;-62
2022/04/06 12:04:49;;;;;;;4.65;2.30;;;;;;;;;;4993130;28;20134;-62
2022/04/06 12:07:22;;;;;;;3.72;2.17;;;;;;;;;;4994949;28;20018;-61
2022/04/06 12:09:48;;;;;;;5.45;2.25;;;;;;;;;;4996872;28;20205;-62
2022/04/06 12:12:14;;;;;;;3.67;2.33;;;;;;;;;;4994630;28;20462;-62
2022/04/06 12:14:41;;;;;;;5.05;2.40;;;;;;;;;;4994412;28;20025;-62
2022/04/06 12:17:07;;;;;;;5.88;2.53;;;;;;;;;;4997736;28;20030;-62
2022/04/06 12:19:33;;;;;;;5.75;2.60;;;;;;;;;;5002636;28;20042;-62
2022/04/06 12:22:06;;;;;;;5.75;2.20;;;;;;;;;;5001860;28;20078;-62
2022/04/06 12:24:36;;;;;;;5.80;2.42;;;;;;;;;;4986553;28;20617;-62
2022/04/06 12:27:03;;;;;;;7.68;2.90;;;;;;;;;;5002456;28;20117;-62
2022/04/06 12:29:29;;;;;;;6.75;2.83;;;;;;;;;;4985834;28;20038;-61
2022/04/06 12:31:55;;;;;;;5.40;2.40;;;;;;;;;;4994205;28;20478;-62
2022/04/06 12:34:34;;;;;;;9.02;2.70;;;;;;;;;;5000138;28;20604;-61
2022/04/06 12:37:29;;;;;;;4.63;2.45;;;;;;;;;;5000318;28;20389;-62
2022/04/06 12:40:05;;;;;;;8.13;3.10;;;;;;;;;;4998325;28;20490;-62
2022/04/06 12:42:41;;;;;;;5.75;2.50;;;;;;;;;;5001790;28;20052;-62
2022/04/06 12:45:09;;;;;;;5.68;2.60;;;;;;;;;;5001552;28;20029;-62
2022/04/06 12:47:34;;;;;;;5.82;2.72;;;;;;;;;;5002946;28;20556;-62
2022/04/06 12:50:30;;;;;;;5.60;3.50;;;;;;;;;;4987909;28;20026;-62
2022/04/06 12:53:04;;;;;;;8.50;2.45;;;;;;;;;;4986393;28;20104;-62
2022/04/06 12:55:30;;;;;;;8.93;3.20;;;;;;;;;;4987582;28;20079;-62
2022/04/06 12:58:14;;;;;;;7.35;2.75;;;;;;;;;;4998495;28;20080;-62
2022/04/06 13:00:40;;;;;;;8.13;3.05;;;;;;;;;;4999488;28;20165;-62
2022/04/06 13:03:06;;;;;;;5.00;2.90;;;;;;;;;;4981487;28;20033;-62
2022/04/06 13:05:32;;;;;;;5.32;2.80;;;;;;;;;;4999135;28;20041;-61
2022/04/06 13:07:58;;;;;;;6.93;2.80;;;;;;;;;;4982896;28;20064;-62
2022/04/06 13:10:28;;;;;;;12.35;3.45;;;;;;;;;;5004664;28;20057;-62
2022/04/06 13:12:55;;;;;;;6.78;2.70;;;;;;;;;;4997107;28;20025;-62
2022/04/06 13:15:21;;;;;;;7.38;3.80;;;;;;;;;;4997605;28;20020;-62
2022/04/06 13:17:51;;;;;;;5.10;2.60;;;;;;;;;;5001698;28;20113;-62
2022/04/06 13:20:19;;;;;;;4.68;3.22;;;;;;;;;;4997066;28;20050;-62
2022/04/06 13:22:45;;;;;;;5.28;2.72;;;;;;;;;;4995088;28;20520;-62
2022/04/06 13:25:12;;;;;;;5.57;2.90;;;;;;;;;;5000545;28;20026;-64
2022/04/06 13:27:39;;;;;;;6.63;3.20;;;;;;;;;;5002732;28;20065;-62
2022/04/06 13:30:07;;;;;;;5.20;2.70;;;;;;;;;;5001586;28;20030;-62
2022/04/06 13:32:33;;;;;;;8.45;2.83;;;;;;;;;;4999248;28;20037;-61
2022/04/06 13:35:00;;;;;;;9.05;3.20;;;;;;;;;;5002431;28;20042;-62
2022/04/06 13:37:26;;;;;;;6.35;3.00;;;;;;;;;;4998642;28;20075;-62
2022/04/06 13:39:52;;;;;;;5.88;2.60;;;;;;;;;;4997045;28;20030;-61
2022/04/06 13:42:19;;;;;;;4.93;2.88;;;;;;;;;;5001472;28;20105;-62
2022/04/06 13:44:45;;;;;;;5.25;2.90;;;;;;;;;;5004355;28;20353;-61
2022/04/06 13:47:11;;;;;;;4.97;2.90;;;;;;;;;;4999793;28;20034;-62
2022/04/06 13:49:37;;;;;;;7.18;3.00;;;;;;;;;;5004871;28;20045;-61
2022/04/06 13:52:04;;;;;;;8.13;2.80;;;;;;;;;;5004733;28;20407;-62
2022/04/06 13:54:31;;;;;;;4.72;2.58;;;;;;;;;;5002827;28;20027;-62
2022/04/06 13:56:57;;;;;;;4.85;2.63;;;;;;;;;;5001844;28;20496;-62
2022/04/06 13:59:23;;;;;;;7.25;2.65;;;;;;;;;;5003917;28;20445;-61
2022/04/06 14:01:49;;;;;;;4.35;2.38;;;;;;;;;;5002259;28;20034;-62
2022/04/06 14:04:15;;;;;;;5.95;2.33;;;;;;;;;;5001252;28;20084;-62
2022/04/06 14:06:42;;;;;;;6.82;2.28;;;;;;;;;;4997431;28;20025;-62
2022/04/06 14:09:09;;;;;;;5.10;2.22;;;;;;;;;;5001993;28;20417;-62
2022/04/06 14:11:35;;;;;;;5.15;2.50;;;;;;;;;;5002558;28;20025;-61
2022/04/06 14:14:01;;;;;;;4.55;2.40;;;;;;;;;;4982463;28;20493;-61
2022/04/06 14:16:27;;;;;;;5.28;2.28;;;;;;;;;;5003641;28;20026;-61
2022/04/06 14:18:55;;;;;;;6.47;2.50;;;;;;;;;;5001878;28;20030;-62
2022/04/06 14:21:22;;;;;;;5.05;2.50;;;;;;;;;;4998141;28;20067;-62
2022/04/06 14:23:48;;;;;;;8.13;2.42;;;;;;;;;;5000340;28;20444;-62
2022/04/06 14:26:14;;;;;;;5.00;2.53;;;;;;;;;;4998918;28;20120;-62
2022/04/06 14:28:40;;;;;;;5.72;2.25;;;;;;;;;;5002137;28;20036;-62
2022/04/06 14:31:07;;;;;;;3.70;2.15;;;;;;;;;;4995694;28;20031;-62
2022/04/06 14:33:34;;;;;;;5.55;2.63;;;;;;;;;;4996439;28;20386;-62
2022/04/06 14:36:00;;;;;;;6.85;2.40;;;;;;;;;;5004120;28;20444;-62
2022/04/06 14:38:27;;;;;;;3.85;2.42;;;;;;;;;;5004310;28;20038;-62
2022/04/06 14:40:53;;;;;;;5.18;2.10;;;;;;;;;;5003471;28;20100;-62
2022/04/06 14:43:23;;;;;;;5.32;2.10;;;;;;;;;;5001719;28;20026;-62
2022/04/06 14:45:52;;;;;;;4.25;2.47;;;;;;;;;;4999839;28;20082;-62